sensor_id;sensor_type;location;lat;lon;timestamp;P1;durP1;ratioP1;P2;durP2;ratioP2
39728;SDS011;25402;42.004;23.088;2022-09-23T00:00:32;12.43;;;4.97;;
39728;SDS011;25402;42.004;23.088;2022-09-23T00:03:00;6.75;;;5.57;;
39728;SDS011;25402;42.004;23.088;2022-09-23T00:05:27;6.20;;;4.90;;
39728;SDS011;25402;42.004;23.088;2022-09-23T00:07:55;10.10;;;5.30;;
39728;SDS011;25402;42.004;23.088;2022-09-23T00:10:23;6.30;;;4.88;;
39728;SDS011;25402;42.004;23.088;2022-09-23T00:12:52;10.30;;;5.30;;
39728;SDS011;25402;42.004;23.088;2022-09-23T00:15:21;11.73;;;5.80;;
39728;SDS011;25402;42.004;23.088;2022-09-23T00:17:49;10.65;;;5.72;;
39728;SDS011;25402;42.004;23.088;2022-09-23T00:20:16;13.57;;;5.70;;
39728;SDS011;25402;42.004;23.088;2022-09-23T00:22:44;10.38;;;5.07;;
39728;SDS011;25402;42.004;23.088;2022-09-23T00:25:12;10.40;;;5.80;;
39728;SDS011;25402;42.004;23.088;2022-09-23T00:27:39;7.45;;;5.30;;
39728;SDS011;25402;42.004;23.088;2022-09-23T00:30:07;14.00;;;5.20;;
39728;SDS011;25402;42.004;23.088;2022-09-23T00:32:37;8.25;;;5.63;;
39728;SDS011;25402;42.004;23.088;2022-09-23T00:35:04;8.35;;;5.13;;
39728;SDS011;25402;42.004;23.088;2022-09-23T00:37:33;12.55;;;5.70;;
39728;SDS011;25402;42.004;23.088;2022-09-23T00:40:00;10.52;;;5.13;;
39728;SDS011;25402;42.004;23.088;2022-09-23T00:42:28;7.65;;;6.10;;
39728;SDS011;25402;42.004;23.088;2022-09-23T00:44:55;12.48;;;6.65;;
39728;SDS011;25402;42.004;23.088;2022-09-23T00:47:28;10.68;;;6.40;;
39728;SDS011;25402;42.004;23.088;2022-09-23T00:50:04;10.43;;;7.15;;
39728;SDS011;25402;42.004;23.088;2022-09-23T00:52:35;13.55;;;6.38;;
39728;SDS011;25402;42.004;23.088;2022-09-23T00:55:04;7.85;;;6.18;;
39728;SDS011;25402;42.004;23.088;2022-09-23T00:57:38;14.73;;;6.20;;
39728;SDS011;25402;42.004;23.088;2022-09-23T01:00:09;7.20;;;5.30;;
39728;SDS011;25402;42.004;23.088;2022-09-23T01:02:38;8.38;;;5.55;;
39728;SDS011;25402;42.004;23.088;2022-09-23T01:05:06;9.98;;;5.65;;
39728;SDS011;25402;42.004;23.088;2022-09-23T01:07:39;9.32;;;6.35;;
39728;SDS011;25402;42.004;23.088;2022-09-23T01:10:07;10.35;;;6.88;;
39728;SDS011;25402;42.004;23.088;2022-09-23T01:12:48;8.52;;;6.28;;
39728;SDS011;25402;42.004;23.088;2022-09-23T01:15:24;10.38;;;5.97;;
39728;SDS011;25402;42.004;23.088;2022-09-23T01:18:02;15.38;;;5.50;;
39728;SDS011;25402;42.004;23.088;2022-09-23T01:23:39;6.78;;;5.32;;
39728;SDS011;25402;42.004;23.088;2022-09-23T01:26:41;12.77;;;5.35;;
39728;SDS011;25402;42.004;23.088;2022-09-23T01:29:26;12.85;;;5.53;;
39728;SDS011;25402;42.004;23.088;2022-09-23T01:32:20;7.63;;;5.15;;
39728;SDS011;25402;42.004;23.088;2022-09-23T01:34:58;7.32;;;5.40;;
39728;SDS011;25402;42.004;23.088;2022-09-23T01:37:31;7.68;;;5.78;;
39728;SDS011;25402;42.004;23.088;2022-09-23T01:40:04;8.25;;;5.60;;
39728;SDS011;25402;42.004;23.088;2022-09-23T01:42:37;8.75;;;6.15;;
39728;SDS011;25402;42.004;23.088;2022-09-23T01:45:10;8.10;;;5.38;;
39728;SDS011;25402;42.004;23.088;2022-09-23T01:47:43;8.88;;;6.05;;
39728;SDS011;25402;42.004;23.088;2022-09-23T01:50:17;11.52;;;5.95;;
39728;SDS011;25402;42.004;23.088;2022-09-23T01:53:06;12.20;;;6.15;;
39728;SDS011;25402;42.004;23.088;2022-09-23T01:55:38;5.75;;;3.67;;
39728;SDS011;25402;42.004;23.088;2022-09-23T01:58:11;10.07;;;6.00;;
39728;SDS011;25402;42.004;23.088;2022-09-23T02:00:46;9.77;;;6.53;;
39728;SDS011;25402;42.004;23.088;2022-09-23T02:03:20;8.57;;;6.03;;
39728;SDS011;25402;42.004;23.088;2022-09-23T02:05:52;9.75;;;6.13;;
39728;SDS011;25402;42.004;23.088;2022-09-23T02:08:26;11.65;;;5.63;;
39728;SDS011;25402;42.004;23.088;2022-09-23T02:10:59;9.75;;;5.78;;
39728;SDS011;25402;42.004;23.088;2022-09-23T02:13:33;9.23;;;5.93;;
39728;SDS011;25402;42.004;23.088;2022-09-23T02:16:06;8.63;;;5.50;;
39728;SDS011;25402;42.004;23.088;2022-09-23T02:18:40;10.95;;;5.93;;
39728;SDS011;25402;42.004;23.088;2022-09-23T02:21:14;8.38;;;6.32;;
39728;SDS011;25402;42.004;23.088;2022-09-23T02:23:49;8.10;;;5.85;;
39728;SDS011;25402;42.004;23.088;2022-09-23T02:26:21;8.77;;;5.95;;
39728;SDS011;25402;42.004;23.088;2022-09-23T02:28:54;10.35;;;6.10;;
39728;SDS011;25402;42.004;23.088;2022-09-23T02:31:28;11.82;;;5.13;;
39728;SDS011;25402;42.004;23.088;2022-09-23T02:34:04;9.23;;;5.28;;
39728;SDS011;25402;42.004;23.088;2022-09-23T02:36:43;10.57;;;5.97;;
39728;SDS011;25402;42.004;23.088;2022-09-23T02:39:17;11.90;;;6.30;;
39728;SDS011;25402;42.004;23.088;2022-09-23T02:41:50;29.92;;;6.38;;
39728;SDS011;25402;42.004;23.088;2022-09-23T02:44:24;22.15;;;7.03;;
39728;SDS011;25402;42.004;23.088;2022-09-23T02:46:54;17.27;;;6.68;;
39728;SDS011;25402;42.004;23.088;2022-09-23T02:49:25;15.57;;;6.90;;
39728;SDS011;25402;42.004;23.088;2022-09-23T02:51:59;15.93;;;6.30;;
39728;SDS011;25402;42.004;23.088;2022-09-23T02:54:30;16.35;;;6.22;;
39728;SDS011;25402;42.004;23.088;2022-09-23T02:56:58;11.48;;;5.95;;
39728;SDS011;25402;42.004;23.088;2022-09-23T02:59:28;9.57;;;5.95;;
39728;SDS011;25402;42.004;23.088;2022-09-23T03:02:14;12.20;;;7.32;;
39728;SDS011;25402;42.004;23.088;2022-09-23T03:05:09;11.88;;;6.93;;
39728;SDS011;25402;42.004;23.088;2022-09-23T03:07:48;12.30;;;6.88;;
39728;SDS011;25402;42.004;23.088;2022-09-23T03:10:32;9.88;;;6.45;;
39728;SDS011;25402;42.004;23.088;2022-09-23T03:13:08;12.90;;;6.47;;
39728;SDS011;25402;42.004;23.088;2022-09-23T03:15:45;8.68;;;5.93;;
39728;SDS011;25402;42.004;23.088;2022-09-23T03:18:23;10.43;;;6.43;;
39728;SDS011;25402;42.004;23.088;2022-09-23T03:21:02;12.27;;;6.13;;
39728;SDS011;25402;42.004;23.088;2022-09-23T03:23:35;10.50;;;3.97;;
39728;SDS011;25402;42.004;23.088;2022-09-23T03:26:07;14.63;;;4.90;;
39728;SDS011;25402;42.004;23.088;2022-09-23T03:28:43;17.40;;;4.28;;
39728;SDS011;25402;42.004;23.088;2022-09-23T03:31:13;13.27;;;4.50;;
39728;SDS011;25402;42.004;23.088;2022-09-23T03:33:42;18.27;;;4.30;;
39728;SDS011;25402;42.004;23.088;2022-09-23T03:36:24;16.05;;;4.30;;
39728;SDS011;25402;42.004;23.088;2022-09-23T03:39:23;19.17;;;4.40;;
39728;SDS011;25402;42.004;23.088;2022-09-23T03:42:07;13.98;;;4.65;;
39728;SDS011;25402;42.004;23.088;2022-09-23T03:47:32;33.15;;;5.50;;
39728;SDS011;25402;42.004;23.088;2022-09-23T03:50:22;16.17;;;4.82;;
39728;SDS011;25402;42.004;23.088;2022-09-23T03:53:18;15.00;;;4.63;;
39728;SDS011;25402;42.004;23.088;2022-09-23T03:55:55;12.68;;;4.78;;
39728;SDS011;25402;42.004;23.088;2022-09-23T03:59:03;12.23;;;5.00;;
39728;SDS011;25402;42.004;23.088;2022-09-23T04:17:13;10.50;;;5.25;;
39728;SDS011;25402;42.004;23.088;2022-09-23T04:19:40;8.77;;;5.28;;
39728;SDS011;25402;42.004;23.088;2022-09-23T04:22:09;11.40;;;5.90;;
39728;SDS011;25402;42.004;23.088;2022-09-23T04:24:36;15.23;;;8.50;;
39728;SDS011;25402;42.004;23.088;2022-09-23T04:27:03;9.55;;;6.68;;
39728;SDS011;25402;42.004;23.088;2022-09-23T04:29:30;15.93;;;7.65;;
39728;SDS011;25402;42.004;23.088;2022-09-23T04:31:59;13.52;;;6.68;;
39728;SDS011;25402;42.004;23.088;2022-09-23T04:34:26;19.38;;;7.55;;
39728;SDS011;25402;42.004;23.088;2022-09-23T04:36:53;41.10;;;14.32;;
39728;SDS011;25402;42.004;23.088;2022-09-23T04:39:21;14.88;;;7.45;;
39728;SDS011;25402;42.004;23.088;2022-09-23T04:41:48;16.50;;;7.40;;
39728;SDS011;25402;42.004;23.088;2022-09-23T04:44:15;19.45;;;8.15;;
39728;SDS011;25402;42.004;23.088;2022-09-23T04:46:42;14.20;;;7.45;;
39728;SDS011;25402;42.004;23.088;2022-09-23T04:49:13;38.38;;;11.68;;
39728;SDS011;25402;42.004;23.088;2022-09-23T04:51:41;46.58;;;14.30;;
39728;SDS011;25402;42.004;23.088;2022-09-23T04:54:10;43.58;;;12.40;;
39728;SDS011;25402;42.004;23.088;2022-09-23T04:56:39;78.90;;;14.55;;
39728;SDS011;25402;42.004;23.088;2022-09-23T04:59:16;33.70;;;9.30;;
39728;SDS011;25402;42.004;23.088;2022-09-23T05:01:45;28.60;;;10.98;;
39728;SDS011;25402;42.004;23.088;2022-09-23T05:04:37;31.27;;;7.70;;
39728;SDS011;25402;42.004;23.088;2022-09-23T05:07:17;71.63;;;8.77;;
39728;SDS011;25402;42.004;23.088;2022-09-23T05:09:55;25.60;;;5.30;;
39728;SDS011;25402;42.004;23.088;2022-09-23T05:12:38;15.27;;;4.82;;
39728;SDS011;25402;42.004;23.088;2022-09-23T05:31:01;24.13;;;6.15;;
39728;SDS011;25402;42.004;23.088;2022-09-23T05:36:38;21.23;;;4.90;;
39728;SDS011;25402;42.004;23.088;2022-09-23T05:39:18;18.58;;;5.18;;
39728;SDS011;25402;42.004;23.088;2022-09-23T05:41:49;26.50;;;7.28;;
39728;SDS011;25402;42.004;23.088;2022-09-23T05:44:33;12.98;;;5.22;;
39728;SDS011;25402;42.004;23.088;2022-09-23T05:47:35;11.52;;;4.97;;
39728;SDS011;25402;42.004;23.088;2022-09-23T06:15:10;17.27;;;7.32;;
39728;SDS011;25402;42.004;23.088;2022-09-23T06:17:44;12.52;;;6.97;;
39728;SDS011;25402;42.004;23.088;2022-09-23T06:20:17;15.68;;;6.40;;
39728;SDS011;25402;42.004;23.088;2022-09-23T06:23:22;14.30;;;5.97;;
39728;SDS011;25402;42.004;23.088;2022-09-23T06:25:49;23.80;;;6.57;;
39728;SDS011;25402;42.004;23.088;2022-09-23T06:28:16;11.82;;;6.13;;
39728;SDS011;25402;42.004;23.088;2022-09-23T06:30:50;11.20;;;5.78;;
39728;SDS011;25402;42.004;23.088;2022-09-23T06:33:24;15.27;;;5.85;;
39728;SDS011;25402;42.004;23.088;2022-09-23T06:35:56;16.15;;;6.15;;
39728;SDS011;25402;42.004;23.088;2022-09-23T06:38:23;15.98;;;5.65;;
39728;SDS011;25402;42.004;23.088;2022-09-23T06:40:51;10.05;;;5.63;;
39728;SDS011;25402;42.004;23.088;2022-09-23T06:43:20;12.40;;;5.80;;
39728;SDS011;25402;42.004;23.088;2022-09-23T06:45:52;21.80;;;6.05;;
39728;SDS011;25402;42.004;23.088;2022-09-23T06:48:21;8.65;;;5.40;;
39728;SDS011;25402;42.004;23.088;2022-09-23T06:50:53;10.85;;;5.22;;
39728;SDS011;25402;42.004;23.088;2022-09-23T06:53:27;10.48;;;5.55;;
39728;SDS011;25402;42.004;23.088;2022-09-23T06:55:59;14.90;;;5.40;;
39728;SDS011;25402;42.004;23.088;2022-09-23T06:58:30;14.05;;;5.28;;
39728;SDS011;25402;42.004;23.088;2022-09-23T07:01:04;7.78;;;5.03;;
39728;SDS011;25402;42.004;23.088;2022-09-23T07:03:32;13.25;;;5.57;;
39728;SDS011;25402;42.004;23.088;2022-09-23T07:06:00;7.15;;;5.07;;
39728;SDS011;25402;42.004;23.088;2022-09-23T07:08:28;29.35;;;14.23;;
39728;SDS011;25402;42.004;23.088;2022-09-23T07:10:59;15.68;;;8.45;;
39728;SDS011;25402;42.004;23.088;2022-09-23T07:13:28;34.15;;;15.60;;
39728;SDS011;25402;42.004;23.088;2022-09-23T07:15:57;15.02;;;8.38;;
39728;SDS011;25402;42.004;23.088;2022-09-23T07:18:28;12.48;;;5.22;;
39728;SDS011;25402;42.004;23.088;2022-09-23T07:21:03;10.13;;;5.05;;
39728;SDS011;25402;42.004;23.088;2022-09-23T07:23:32;14.40;;;4.78;;
39728;SDS011;25402;42.004;23.088;2022-09-23T07:26:03;8.70;;;5.43;;
39728;SDS011;25402;42.004;23.088;2022-09-23T07:28:31;55.40;;;7.03;;
39728;SDS011;25402;42.004;23.088;2022-09-23T07:31:04;13.00;;;4.82;;
39728;SDS011;25402;42.004;23.088;2022-09-23T07:33:34;8.60;;;5.00;;
39728;SDS011;25402;42.004;23.088;2022-09-23T07:36:04;8.00;;;5.57;;
39728;SDS011;25402;42.004;23.088;2022-09-23T07:38:32;9.93;;;5.10;;
39728;SDS011;25402;42.004;23.088;2022-09-23T07:41:00;10.23;;;5.03;;
39728;SDS011;25402;42.004;23.088;2022-09-23T07:43:28;9.48;;;4.78;;
39728;SDS011;25402;42.004;23.088;2022-09-23T07:45:58;7.70;;;4.88;;
39728;SDS011;25402;42.004;23.088;2022-09-23T07:48:27;9.60;;;4.90;;
39728;SDS011;25402;42.004;23.088;2022-09-23T07:50:56;7.72;;;4.93;;
39728;SDS011;25402;42.004;23.088;2022-09-23T07:53:28;8.05;;;5.18;;
39728;SDS011;25402;42.004;23.088;2022-09-23T07:55:56;23.35;;;5.32;;
39728;SDS011;25402;42.004;23.088;2022-09-23T07:58:33;13.23;;;6.40;;
39728;SDS011;25402;42.004;23.088;2022-09-23T08:01:01;23.75;;;6.13;;
39728;SDS011;25402;42.004;23.088;2022-09-23T08:03:30;14.85;;;5.38;;
39728;SDS011;25402;42.004;23.088;2022-09-23T08:06:07;16.92;;;5.38;;
39728;SDS011;25402;42.004;23.088;2022-09-23T08:11:21;9.05;;;4.88;;
39728;SDS011;25402;42.004;23.088;2022-09-23T08:13:50;13.93;;;5.00;;
39728;SDS011;25402;42.004;23.088;2022-09-23T08:16:20;12.77;;;5.20;;
39728;SDS011;25402;42.004;23.088;2022-09-23T08:18:50;9.27;;;4.35;;
39728;SDS011;25402;42.004;23.088;2022-09-23T08:21:25;9.60;;;4.32;;
39728;SDS011;25402;42.004;23.088;2022-09-23T08:24:06;11.23;;;3.80;;
39728;SDS011;25402;42.004;23.088;2022-09-23T08:26:33;10.52;;;4.20;;
39728;SDS011;25402;42.004;23.088;2022-09-23T08:29:02;17.25;;;3.70;;
39728;SDS011;25402;42.004;23.088;2022-09-23T08:34:03;6.97;;;4.10;;
39728;SDS011;25402;42.004;23.088;2022-09-23T08:36:39;8.60;;;4.07;;
39728;SDS011;25402;42.004;23.088;2022-09-23T08:39:15;11.90;;;3.97;;
39728;SDS011;25402;42.004;23.088;2022-09-23T08:44:19;6.43;;;3.83;;
39728;SDS011;25402;42.004;23.088;2022-09-23T08:47:06;7.57;;;3.20;;
39728;SDS011;25402;42.004;23.088;2022-09-23T08:49:47;4.70;;;3.17;;
39728;SDS011;25402;42.004;23.088;2022-09-23T08:52:27;26.08;;;3.90;;
39728;SDS011;25402;42.004;23.088;2022-09-23T08:55:00;8.65;;;3.60;;
39728;SDS011;25402;42.004;23.088;2022-09-23T08:57:36;4.00;;;3.05;;
39728;SDS011;25402;42.004;23.088;2022-09-23T09:00:13;18.63;;;3.10;;
39728;SDS011;25402;42.004;23.088;2022-09-23T09:02:45;9.85;;;5.35;;
39728;SDS011;25402;42.004;23.088;2022-09-23T09:05:14;15.00;;;4.82;;
39728;SDS011;25402;42.004;23.088;2022-09-23T09:07:50;5.10;;;2.40;;
39728;SDS011;25402;42.004;23.088;2022-09-23T09:10:22;4.57;;;2.85;;
39728;SDS011;25402;42.004;23.088;2022-09-23T09:12:58;10.07;;;3.78;;
39728;SDS011;25402;42.004;23.088;2022-09-23T09:15:30;6.72;;;2.50;;
39728;SDS011;25402;42.004;23.088;2022-09-23T09:18:09;8.20;;;4.63;;
39728;SDS011;25402;42.004;23.088;2022-09-23T09:20:44;7.20;;;3.42;;
39728;SDS011;25402;42.004;23.088;2022-09-23T09:23:24;12.05;;;5.90;;
39728;SDS011;25402;42.004;23.088;2022-09-23T09:25:57;8.43;;;4.43;;
39728;SDS011;25402;42.004;23.088;2022-09-23T09:28:27;5.57;;;2.70;;
39728;SDS011;25402;42.004;23.088;2022-09-23T09:31:00;13.60;;;3.85;;
39728;SDS011;25402;42.004;23.088;2022-09-23T09:33:43;9.73;;;4.18;;
39728;SDS011;25402;42.004;23.088;2022-09-23T09:36:18;2.60;;;2.08;;
39728;SDS011;25402;42.004;23.088;2022-09-23T09:38:57;6.25;;;3.53;;
39728;SDS011;25402;42.004;23.088;2022-09-23T09:41:25;4.95;;;2.10;;
39728;SDS011;25402;42.004;23.088;2022-09-23T09:43:56;4.85;;;2.10;;
39728;SDS011;25402;42.004;23.088;2022-09-23T09:46:40;4.50;;;1.98;;
39728;SDS011;25402;42.004;23.088;2022-09-23T09:49:33;5.30;;;1.77;;
39728;SDS011;25402;42.004;23.088;2022-09-23T09:52:13;6.00;;;1.80;;
39728;SDS011;25402;42.004;23.088;2022-09-23T09:54:48;3.03;;;2.10;;
39728;SDS011;25402;42.004;23.088;2022-09-23T09:57:17;3.40;;;2.00;;
39728;SDS011;25402;42.004;23.088;2022-09-23T09:59:56;18.70;;;3.20;;
39728;SDS011;25402;42.004;23.088;2022-09-23T10:02:25;15.63;;;1.90;;
39728;SDS011;25402;42.004;23.088;2022-09-23T10:04:58;4.10;;;2.10;;
39728;SDS011;25402;42.004;23.088;2022-09-23T10:07:28;7.30;;;1.70;;
39728;SDS011;25402;42.004;23.088;2022-09-23T10:09:58;5.28;;;1.75;;
39728;SDS011;25402;42.004;23.088;2022-09-23T10:12:45;3.45;;;2.00;;
39728;SDS011;25402;42.004;23.088;2022-09-23T10:15:24;2.35;;;1.75;;
39728;SDS011;25402;42.004;23.088;2022-09-23T10:17:55;5.07;;;1.70;;
39728;SDS011;25402;42.004;23.088;2022-09-23T10:20:30;4.88;;;1.45;;
39728;SDS011;25402;42.004;23.088;2022-09-23T10:23:13;7.93;;;1.80;;
39728;SDS011;25402;42.004;23.088;2022-09-23T10:25:54;3.28;;;1.90;;
39728;SDS011;25402;42.004;23.088;2022-09-23T10:28:29;3.95;;;1.30;;
39728;SDS011;25402;42.004;23.088;2022-09-23T10:31:11;4.70;;;1.60;;
39728;SDS011;25402;42.004;23.088;2022-09-23T10:33:50;5.10;;;1.60;;
39728;SDS011;25402;42.004;23.088;2022-09-23T10:36:19;8.15;;;1.50;;
39728;SDS011;25402;42.004;23.088;2022-09-23T10:38:48;5.22;;;1.60;;
39728;SDS011;25402;42.004;23.088;2022-09-23T10:41:23;1.83;;;1.40;;
39728;SDS011;25402;42.004;23.088;2022-09-23T10:44:26;7.60;;;1.42;;
39728;SDS011;25402;42.004;23.088;2022-09-23T10:47:20;2.60;;;1.58;;
39728;SDS011;25402;42.004;23.088;2022-09-23T10:50:04;1.58;;;1.38;;
39728;SDS011;25402;42.004;23.088;2022-09-23T10:52:48;6.03;;;1.50;;
39728;SDS011;25402;42.004;23.088;2022-09-23T10:58:25;2.75;;;1.40;;
39728;SDS011;25402;42.004;23.088;2022-09-23T11:01:07;5.72;;;1.75;;
39728;SDS011;25402;42.004;23.088;2022-09-23T11:06:46;1.63;;;1.40;;
39728;SDS011;25402;42.004;23.088;2022-09-23T11:09:28;1.70;;;1.43;;
39728;SDS011;25402;42.004;23.088;2022-09-23T11:12:10;2.58;;;1.80;;
39728;SDS011;25402;42.004;23.088;2022-09-23T11:14:57;3.60;;;1.50;;
39728;SDS011;25402;42.004;23.088;2022-09-23T11:17:43;8.07;;;1.80;;
39728;SDS011;25402;42.004;23.088;2022-09-23T11:20:42;2.90;;;1.88;;
39728;SDS011;25402;42.004;23.088;2022-09-23T11:26:22;3.20;;;1.98;;
39728;SDS011;25402;42.004;23.088;2022-09-23T11:29:03;7.75;;;1.88;;
39728;SDS011;25402;42.004;23.088;2022-09-23T11:31:56;2.08;;;1.85;;
39728;SDS011;25402;42.004;23.088;2022-09-23T11:34:48;2.25;;;1.70;;
39728;SDS011;25402;42.004;23.088;2022-09-23T11:37:27;1.90;;;1.55;;
39728;SDS011;25402;42.004;23.088;2022-09-23T11:39:59;2.75;;;1.90;;
39728;SDS011;25402;42.004;23.088;2022-09-23T11:42:31;2.28;;;1.40;;
39728;SDS011;25402;42.004;23.088;2022-09-23T11:45:05;3.15;;;1.60;;
39728;SDS011;25402;42.004;23.088;2022-09-23T11:47:43;5.97;;;1.55;;
39728;SDS011;25402;42.004;23.088;2022-09-23T11:50:17;2.70;;;1.65;;
39728;SDS011;25402;42.004;23.088;2022-09-23T11:52:52;2.85;;;1.50;;
39728;SDS011;25402;42.004;23.088;2022-09-23T11:55:24;4.28;;;1.60;;
39728;SDS011;25402;42.004;23.088;2022-09-23T11:57:56;3.78;;;1.67;;
39728;SDS011;25402;42.004;23.088;2022-09-23T12:00:32;2.28;;;1.70;;
39728;SDS011;25402;42.004;23.088;2022-09-23T12:03:06;3.55;;;2.50;;
39728;SDS011;25402;42.004;23.088;2022-09-23T12:05:43;14.23;;;3.03;;
39728;SDS011;25402;42.004;23.088;2022-09-23T12:08:15;16.77;;;2.55;;
39728;SDS011;25402;42.004;23.088;2022-09-23T12:10:50;4.43;;;1.60;;
39728;SDS011;25402;42.004;23.088;2022-09-23T12:13:25;6.38;;;1.77;;
39728;SDS011;25402;42.004;23.088;2022-09-23T12:16:04;8.45;;;1.40;;
39728;SDS011;25402;42.004;23.088;2022-09-23T12:18:46;1.55;;;1.38;;
39728;SDS011;25402;42.004;23.088;2022-09-23T12:21:29;5.55;;;1.25;;
39728;SDS011;25402;42.004;23.088;2022-09-23T12:24:13;2.53;;;1.35;;
39728;SDS011;25402;42.004;23.088;2022-09-23T12:26:53;6.43;;;1.20;;
39728;SDS011;25402;42.004;23.088;2022-09-23T12:29:23;3.97;;;1.77;;
39728;SDS011;25402;42.004;23.088;2022-09-23T12:31:52;2.33;;;1.35;;
39728;SDS011;25402;42.004;23.088;2022-09-23T12:34:22;2.78;;;1.27;;
39728;SDS011;25402;42.004;23.088;2022-09-23T12:36:57;1.55;;;1.45;;
39728;SDS011;25402;42.004;23.088;2022-09-23T12:39:28;1.70;;;1.40;;
39728;SDS011;25402;42.004;23.088;2022-09-23T12:41:58;3.78;;;1.40;;
39728;SDS011;25402;42.004;23.088;2022-09-23T12:44:31;1.20;;;1.10;;
39728;SDS011;25402;42.004;23.088;2022-09-23T12:50:21;3.92;;;1.45;;
39728;SDS011;25402;42.004;23.088;2022-09-23T12:56:20;2.00;;;1.40;;
39728;SDS011;25402;42.004;23.088;2022-09-23T12:59:19;1.90;;;1.33;;
39728;SDS011;25402;42.004;23.088;2022-09-23T13:01:50;1.95;;;1.45;;
39728;SDS011;25402;42.004;23.088;2022-09-23T13:04:28;1.38;;;1.20;;
39728;SDS011;25402;42.004;23.088;2022-09-23T13:07:17;4.82;;;1.20;;
39728;SDS011;25402;42.004;23.088;2022-09-23T13:09:51;3.25;;;1.50;;
39728;SDS011;25402;42.004;23.088;2022-09-23T13:12:27;5.13;;;1.50;;
39728;SDS011;25402;42.004;23.088;2022-09-23T13:14:57;1.93;;;1.50;;
39728;SDS011;25402;42.004;23.088;2022-09-23T13:17:31;1.90;;;1.45;;
39728;SDS011;25402;42.004;23.088;2022-09-23T13:20:03;4.18;;;1.25;;
39728;SDS011;25402;42.004;23.088;2022-09-23T13:22:57;2.08;;;1.40;;
39728;SDS011;25402;42.004;23.088;2022-09-23T13:25:31;7.15;;;1.50;;
39728;SDS011;25402;42.004;23.088;2022-09-23T13:28:10;2.63;;;1.13;;
39728;SDS011;25402;42.004;23.088;2022-09-23T13:30:47;3.60;;;1.50;;
39728;SDS011;25402;42.004;23.088;2022-09-23T13:33:21;1.63;;;1.45;;
39728;SDS011;25402;42.004;23.088;2022-09-23T13:35:55;2.83;;;1.63;;
39728;SDS011;25402;42.004;23.088;2022-09-23T13:38:30;2.10;;;1.60;;
39728;SDS011;25402;42.004;23.088;2022-09-23T13:40:59;7.35;;;1.80;;
39728;SDS011;25402;42.004;23.088;2022-09-23T13:43:29;2.22;;;1.88;;
39728;SDS011;25402;42.004;23.088;2022-09-23T13:45:59;3.30;;;1.33;;
39728;SDS011;25402;42.004;23.088;2022-09-23T13:48:29;1.60;;;1.50;;
39728;SDS011;25402;42.004;23.088;2022-09-23T13:51:03;1.83;;;1.63;;
39728;SDS011;25402;42.004;23.088;2022-09-23T13:53:36;3.72;;;1.40;;
39728;SDS011;25402;42.004;23.088;2022-09-23T13:56:04;1.70;;;1.60;;
39728;SDS011;25402;42.004;23.088;2022-09-23T13:58:33;2.53;;;1.30;;
39728;SDS011;25402;42.004;23.088;2022-09-23T14:01:01;4.07;;;2.30;;
39728;SDS011;25402;42.004;23.088;2022-09-23T14:03:34;13.85;;;2.55;;
39728;SDS011;25402;42.004;23.088;2022-09-23T14:06:03;2.38;;;1.80;;
39728;SDS011;25402;42.004;23.088;2022-09-23T14:08:33;15.80;;;1.83;;
39728;SDS011;25402;42.004;23.088;2022-09-23T14:11:02;9.45;;;2.03;;
39728;SDS011;25402;42.004;23.088;2022-09-23T14:13:31;6.05;;;1.70;;
39728;SDS011;25402;42.004;23.088;2022-09-23T14:16:03;4.55;;;2.17;;
39728;SDS011;25402;42.004;23.088;2022-09-23T14:18:34;2.90;;;1.70;;
39728;SDS011;25402;42.004;23.088;2022-09-23T14:21:04;3.63;;;1.80;;
39728;SDS011;25402;42.004;23.088;2022-09-23T14:23:31;4.93;;;2.00;;
39728;SDS011;25402;42.004;23.088;2022-09-23T14:25:59;6.20;;;1.80;;
39728;SDS011;25402;42.004;23.088;2022-09-23T14:28:29;5.00;;;1.83;;
39728;SDS011;25402;42.004;23.088;2022-09-23T14:30:56;3.50;;;2.08;;
39728;SDS011;25402;42.004;23.088;2022-09-23T14:33:25;3.63;;;2.03;;
39728;SDS011;25402;42.004;23.088;2022-09-23T14:35:56;2.88;;;1.63;;
39728;SDS011;25402;42.004;23.088;2022-09-23T14:38:30;2.80;;;1.73;;
39728;SDS011;25402;42.004;23.088;2022-09-23T14:41:21;2.97;;;1.58;;
39728;SDS011;25402;42.004;23.088;2022-09-23T14:43:52;6.18;;;1.80;;
39728;SDS011;25402;42.004;23.088;2022-09-23T14:46:23;2.08;;;1.60;;
39728;SDS011;25402;42.004;23.088;2022-09-23T14:48:56;2.00;;;1.80;;
39728;SDS011;25402;42.004;23.088;2022-09-23T14:51:34;3.55;;;2.10;;
39728;SDS011;25402;42.004;23.088;2022-09-23T14:54:23;2.67;;;1.88;;
39728;SDS011;25402;42.004;23.088;2022-09-23T14:56:58;2.85;;;1.90;;
39728;SDS011;25402;42.004;23.088;2022-09-23T14:59:27;6.45;;;1.90;;
39728;SDS011;25402;42.004;23.088;2022-09-23T15:01:57;2.15;;;1.95;;
39728;SDS011;25402;42.004;23.088;2022-09-23T15:04:29;8.00;;;2.35;;
39728;SDS011;25402;42.004;23.088;2022-09-23T15:07:03;4.55;;;2.00;;
39728;SDS011;25402;42.004;23.088;2022-09-23T15:09:40;2.55;;;2.00;;
39728;SDS011;25402;42.004;23.088;2022-09-23T15:12:10;1.75;;;1.55;;
39728;SDS011;25402;42.004;23.088;2022-09-23T15:14:41;5.93;;;1.70;;
39728;SDS011;25402;42.004;23.088;2022-09-23T15:17:12;2.03;;;1.85;;
39728;SDS011;25402;42.004;23.088;2022-09-23T15:19:42;2.35;;;1.70;;
39728;SDS011;25402;42.004;23.088;2022-09-23T15:22:10;2.13;;;1.92;;
39728;SDS011;25402;42.004;23.088;2022-09-23T15:24:41;2.50;;;1.77;;
39728;SDS011;25402;42.004;23.088;2022-09-23T15:27:21;5.80;;;2.30;;
39728;SDS011;25402;42.004;23.088;2022-09-23T15:30:06;1.90;;;1.73;;
39728;SDS011;25402;42.004;23.088;2022-09-23T15:32:41;2.35;;;1.90;;
39728;SDS011;25402;42.004;23.088;2022-09-23T15:35:10;6.32;;;2.53;;
39728;SDS011;25402;42.004;23.088;2022-09-23T15:37:39;25.27;;;3.00;;
39728;SDS011;25402;42.004;23.088;2022-09-23T15:40:09;3.90;;;2.10;;
39728;SDS011;25402;42.004;23.088;2022-09-23T15:42:45;7.05;;;2.20;;
39728;SDS011;25402;42.004;23.088;2022-09-23T15:45:17;3.17;;;2.00;;
39728;SDS011;25402;42.004;23.088;2022-09-23T15:47:47;2.20;;;2.00;;
39728;SDS011;25402;42.004;23.088;2022-09-23T15:50:15;6.47;;;2.00;;
39728;SDS011;25402;42.004;23.088;2022-09-23T15:52:42;3.10;;;2.05;;
39728;SDS011;25402;42.004;23.088;2022-09-23T15:55:13;3.25;;;2.22;;
39728;SDS011;25402;42.004;23.088;2022-09-23T15:57:41;4.80;;;2.13;;
39728;SDS011;25402;42.004;23.088;2022-09-23T16:00:08;10.38;;;2.30;;
39728;SDS011;25402;42.004;23.088;2022-09-23T16:02:39;7.00;;;2.40;;
39728;SDS011;25402;42.004;23.088;2022-09-23T16:05:09;3.60;;;2.42;;
39728;SDS011;25402;42.004;23.088;2022-09-23T16:07:42;4.40;;;2.60;;
39728;SDS011;25402;42.004;23.088;2022-09-23T16:10:12;3.83;;;2.50;;
39728;SDS011;25402;42.004;23.088;2022-09-23T16:12:39;5.03;;;2.55;;
39728;SDS011;25402;42.004;23.088;2022-09-23T16:15:09;5.47;;;2.72;;
39728;SDS011;25402;42.004;23.088;2022-09-23T16:17:39;6.18;;;2.60;;
39728;SDS011;25402;42.004;23.088;2022-09-23T16:20:08;4.38;;;2.25;;
39728;SDS011;25402;42.004;23.088;2022-09-23T16:22:36;11.60;;;2.60;;
39728;SDS011;25402;42.004;23.088;2022-09-23T16:25:03;5.05;;;2.63;;
39728;SDS011;25402;42.004;23.088;2022-09-23T16:27:32;9.30;;;2.95;;
39728;SDS011;25402;42.004;23.088;2022-09-23T16:29:59;4.82;;;2.70;;
39728;SDS011;25402;42.004;23.088;2022-09-23T16:32:26;9.55;;;2.50;;
39728;SDS011;25402;42.004;23.088;2022-09-23T16:34:55;14.35;;;3.10;;
39728;SDS011;25402;42.004;23.088;2022-09-23T16:37:22;3.65;;;2.65;;